sensor_id;sensor_type;location;lat;lon;timestamp;pressure;altitude;pressure_sealevel;temperature;humidity
66430;BME280;53242;51.694;10.006;2023-03-19T00:00:25;99201.34;;;12.04;80.46
66430;BME280;53242;51.694;10.006;2023-03-19T00:02:47;99202.84;;;11.87;80.94
66430;BME280;53242;51.694;10.006;2023-03-19T00:05:12;99193.47;;;11.91;79.53
66430;BME280;53242;51.694;10.006;2023-03-19T00:07:34;99202.00;;;11.86;79.15
66430;BME280;53242;51.694;10.006;2023-03-19T00:09:57;99209.97;;;11.79;79.29
66430;BME280;53242;51.694;10.006;2023-03-19T00:12:19;99208.34;;;11.78;78.92
66430;BME280;53242;51.694;10.006;2023-03-19T00:14:42;99207.72;;;11.83;78.29
66430;BME280;53242;51.694;10.006;2023-03-19T00:17:04;99204.25;;;11.89;77.94
66430;BME280;53242;51.694;10.006;2023-03-19T00:19:27;99213.59;;;11.98;77.73
66430;BME280;53242;51.694;10.006;2023-03-19T00:21:49;99207.03;;;12.08;77.43
66430;BME280;53242;51.694;10.006;2023-03-19T00:24:12;99210.50;;;12.08;77.25
66430;BME280;53242;51.694;10.006;2023-03-19T00:26:36;99210.28;;;12.10;77.30
66430;BME280;53242;51.694;10.006;2023-03-19T00:28:59;99211.34;;;12.02;77.36
66430;BME280;53242;51.694;10.006;2023-03-19T00:31:23;99208.69;;;12.02;77.65
66430;BME280;53242;51.694;10.006;2023-03-19T00:33:46;99212.59;;;11.93;77.58
66430;BME280;53242;51.694;10.006;2023-03-19T00:36:09;99212.97;;;11.90;77.75
66430;BME280;53242;51.694;10.006;2023-03-19T00:38:32;99212.41;;;11.88;77.87
66430;BME280;53242;51.694;10.006;2023-03-19T00:40:55;99212.59;;;11.86;77.29
66430;BME280;53242;51.694;10.006;2023-03-19T00:43:17;99204.88;;;11.84;77.40
66430;BME280;53242;51.694;10.006;2023-03-19T00:45:40;99216.25;;;11.92;77.11
66430;BME280;53242;51.694;10.006;2023-03-19T00:48:04;99206.69;;;11.91;76.75
66430;BME280;53242;51.694;10.006;2023-03-19T00:50:26;99209.09;;;11.99;75.74
66430;BME280;53242;51.694;10.006;2023-03-19T00:52:48;99214.38;;;12.06;75.30
66430;BME280;53242;51.694;10.006;2023-03-19T00:55:11;99207.88;;;12.08;75.46
66430;BME280;53242;51.694;10.006;2023-03-19T00:57:33;99211.34;;;12.02;75.54
66430;BME280;53242;51.694;10.006;2023-03-19T00:59:56;99216.63;;;12.02;75.93
66430;BME280;53242;51.694;10.006;2023-03-19T01:02:18;99208.09;;;11.93;76.15
66430;BME280;53242;51.694;10.006;2023-03-19T01:04:40;99209.31;;;11.97;76.03
66430;BME280;53242;51.694;10.006;2023-03-19T01:07:03;99218.09;;;11.98;76.25
66430;BME280;53242;51.694;10.006;2023-03-19T01:09:26;99221.63;;;12.17;75.87
66430;BME280;53242;51.694;10.006;2023-03-19T01:11:48;99218.66;;;12.00;76.60
66430;BME280;53242;51.694;10.006;2023-03-19T01:14:11;99227.41;;;12.07;76.84
66430;BME280;53242;51.694;10.006;2023-03-19T01:16:33;99229.25;;;12.00;77.43
66430;BME280;53242;51.694;10.006;2023-03-19T01:18:56;99227.00;;;12.04;77.35
66430;BME280;53242;51.694;10.006;2023-03-19T01:21:19;99230.22;;;12.12;77.25
66430;BME280;53242;51.694;10.006;2023-03-19T01:23:44;99226.59;;;12.00;78.08
66430;BME280;53242;51.694;10.006;2023-03-19T01:26:06;99229.91;;;11.95;78.12
66430;BME280;53242;51.694;10.006;2023-03-19T01:28:30;99225.19;;;11.97;78.19
66430;BME280;53242;51.694;10.006;2023-03-19T01:30:57;99222.75;;;11.89;78.72
66430;BME280;53242;51.694;10.006;2023-03-19T01:33:47;99228.94;;;11.70;79.18
66430;BME280;53242;51.694;10.006;2023-03-19T01:36:16;99231.50;;;11.90;78.90
66430;BME280;53242;51.694;10.006;2023-03-19T01:38:52;99238.84;;;11.81;79.21
66430;BME280;53242;51.694;10.006;2023-03-19T01:41:15;99238.84;;;11.81;79.20
66430;BME280;53242;51.694;10.006;2023-03-19T01:43:38;99234.78;;;11.78;79.04
66430;BME280;53242;51.694;10.006;2023-03-19T01:46:19;99230.31;;;11.79;79.55
66430;BME280;53242;51.694;10.006;2023-03-19T01:49:10;99232.81;;;11.67;79.60
66430;BME280;53242;51.694;10.006;2023-03-19T01:51:36;99224.41;;;11.83;78.75
66430;BME280;53242;51.694;10.006;2023-03-19T01:54:08;99233.97;;;11.84;78.83
66430;BME280;53242;51.694;10.006;2023-03-19T01:56:55;99235.38;;;11.87;78.97
66430;BME280;53242;51.694;10.006;2023-03-19T01:59:42;99238.56;;;11.44;80.17
66430;BME280;53242;51.694;10.006;2023-03-19T02:02:29;99232.41;;;11.63;80.27
66430;BME280;53242;51.694;10.006;2023-03-19T02:07:28;99229.81;;;11.43;80.54
66430;BME280;53242;51.694;10.006;2023-03-19T02:09:52;99229.81;;;11.43;80.69
66430;BME280;53242;51.694;10.006;2023-03-19T02:12:15;99225.97;;;11.32;81.18
66430;BME280;53242;51.694;10.006;2023-03-19T02:14:39;99229.00;;;11.43;80.32
66430;BME280;53242;51.694;10.006;2023-03-19T02:17:01;99222.91;;;11.29;80.41
66430;BME280;53242;51.694;10.006;2023-03-19T02:19:42;99225.38;;;11.24;80.63
66430;BME280;53242;51.694;10.006;2023-03-19T02:22:10;99226.19;;;11.04;80.65
66430;BME280;53242;51.694;10.006;2023-03-19T02:24:38;99218.06;;;10.85;80.96
66430;BME280;53242;51.694;10.006;2023-03-19T02:27:07;99219.47;;;10.88;80.58
66430;BME280;53242;51.694;10.006;2023-03-19T02:29:31;99216.84;;;11.01;79.68
66430;BME280;53242;51.694;10.006;2023-03-19T02:31:55;99213.19;;;10.96;79.69
66430;BME280;53242;51.694;10.006;2023-03-19T02:36:48;99216.66;;;10.76;80.25
66430;BME280;53242;51.694;10.006;2023-03-19T02:39:21;99223.75;;;10.76;80.53
66430;BME280;53242;51.694;10.006;2023-03-19T02:41:45;99217.47;;;10.77;80.16
66430;BME280;53242;51.694;10.006;2023-03-19T02:44:09;99219.69;;;10.73;81.01
66430;BME280;53242;51.694;10.006;2023-03-19T02:46:32;99215.22;;;10.67;80.14
66430;BME280;53242;51.694;10.006;2023-03-19T02:48:55;99222.94;;;10.68;79.60
66430;BME280;53242;51.694;10.006;2023-03-19T02:51:17;99221.34;;;10.74;79.33
66430;BME280;53242;51.694;10.006;2023-03-19T02:53:41;99224.34;;;10.64;79.39
66430;BME280;53242;51.694;10.006;2023-03-19T02:56:03;99221.50;;;10.59;79.86
66430;BME280;53242;51.694;10.006;2023-03-19T02:58:26;99230.06;;;10.75;79.89
66430;BME280;53242;51.694;10.006;2023-03-19T03:00:48;99228.63;;;10.65;80.08
66430;BME280;53242;51.694;10.006;2023-03-19T03:03:11;99224.16;;;10.73;79.65
66430;BME280;53242;51.694;10.006;2023-03-19T03:05:34;99232.09;;;10.93;79.13
66430;BME280;53242;51.694;10.006;2023-03-19T03:07:56;99228.03;;;10.83;79.32
66430;BME280;53242;51.694;10.006;2023-03-19T03:10:19;99228.84;;;10.84;79.20
66430;BME280;53242;51.694;10.006;2023-03-19T03:12:42;99228.81;;;10.91;79.38
66430;BME280;53242;51.694;10.006;2023-03-19T03:15:06;99223.38;;;10.99;79.36
66430;BME280;53242;51.694;10.006;2023-03-19T03:17:30;99217.25;;;10.92;79.29
66430;BME280;53242;51.694;10.006;2023-03-19T03:19:52;99218.47;;;10.96;79.19
66430;BME280;53242;51.694;10.006;2023-03-19T03:22:15;99223.56;;;11.04;79.22
66430;BME280;53242;51.694;10.006;2023-03-19T03:24:37;99229.06;;;11.02;79.33
66430;BME280;53242;51.694;10.006;2023-03-19T03:27:00;99227.19;;;11.10;79.76
66430;BME280;53242;51.694;10.006;2023-03-19T03:29:22;99226.81;;;11.13;79.46
66430;BME280;53242;51.694;10.006;2023-03-19T03:31:45;99223.53;;;11.17;79.92
66430;BME280;53242;51.694;10.006;2023-03-19T03:34:07;99238.78;;;11.09;79.83
66430;BME280;53242;51.694;10.006;2023-03-19T03:36:30;99233.72;;;11.21;79.38
66430;BME280;53242;51.694;10.006;2023-03-19T03:38:53;99232.06;;;11.26;79.38
66430;BME280;53242;51.694;10.006;2023-03-19T03:41:16;99235.13;;;11.30;78.93
66430;BME280;53242;51.694;10.006;2023-03-19T03:43:38;99230.44;;;11.18;79.26
66430;BME280;53242;51.694;10.006;2023-03-19T03:46:03;99228.03;;;11.10;79.85
66430;BME280;53242;51.694;10.006;2023-03-19T03:48:26;99229.63;;;11.11;79.87
66430;BME280;53242;51.694;10.006;2023-03-19T03:50:48;99219.69;;;11.13;79.54
66430;BME280;53242;51.694;10.006;2023-03-19T03:53:14;99223.38;;;10.92;79.59
66430;BME280;53242;51.694;10.006;2023-03-19T03:55:37;99230.25;;;10.86;80.31
66430;BME280;53242;51.694;10.006;2023-03-19T03:57:59;99223.16;;;10.87;80.26
66430;BME280;53242;51.694;10.006;2023-03-19T04:00:22;99226.81;;;10.99;79.75
66430;BME280;53242;51.694;10.006;2023-03-19T04:02:45;99227.81;;;10.92;79.63
66430;BME280;53242;51.694;10.006;2023-03-19T04:05:10;99230.66;;;10.90;80.45
66430;BME280;53242;51.694;10.006;2023-03-19T04:07:33;99229.66;;;10.91;80.18
66430;BME280;53242;51.694;10.006;2023-03-19T04:09:56;99224.19;;;10.86;80.27
66430;BME280;53242;51.694;10.006;2023-03-19T04:12:19;99230.47;;;10.92;79.88
66430;BME280;53242;51.694;10.006;2023-03-19T04:14:43;99234.13;;;10.97;79.73
66430;BME280;53242;51.694;10.006;2023-03-19T04:17:05;99230.25;;;10.93;79.54
66430;BME280;53242;51.694;10.006;2023-03-19T04:19:28;99232.31;;;10.84;79.73
66430;BME280;53242;51.694;10.006;2023-03-19T04:21:50;99230.47;;;10.92;79.42
66430;BME280;53242;51.694;10.006;2023-03-19T04:24:13;99230.25;;;10.93;78.89
66430;BME280;53242;51.694;10.006;2023-03-19T04:26:36;99222.75;;;10.97;78.53
66430;BME280;53242;51.694;10.006;2023-03-19T04:28:59;99230.88;;;11.02;78.50
66430;BME280;53242;51.694;10.006;2023-03-19T04:31:22;99238.38;;;10.92;79.39
66430;BME280;53242;51.694;10.006;2023-03-19T04:33:45;99240.22;;;10.84;80.31
66430;BME280;53242;51.694;10.006;2023-03-19T04:36:07;99243.66;;;10.78;81.66
66430;BME280;53242;51.694;10.006;2023-03-19T04:38:31;99229.63;;;10.78;81.40
66430;BME280;53242;51.694;10.006;2023-03-19T04:40:54;99232.47;;;10.83;81.29
66430;BME280;53242;51.694;10.006;2023-03-19T04:43:17;99233.91;;;10.85;80.91
66430;BME280;53242;51.694;10.006;2023-03-19T04:45:40;99235.75;;;10.92;80.74
66430;BME280;53242;51.694;10.006;2023-03-19T04:48:02;99234.72;;;10.86;80.91
66430;BME280;53242;51.694;10.006;2023-03-19T04:50:26;99237.38;;;10.86;82.20
66430;BME280;53242;51.694;10.006;2023-03-19T04:52:50;99244.06;;;10.89;81.14
66430;BME280;53242;51.694;10.006;2023-03-19T04:55:13;99242.06;;;10.97;80.68
66430;BME280;53242;51.694;10.006;2023-03-19T04:57:59;99237.97;;;10.88;81.05
66430;BME280;53242;51.694;10.006;2023-03-19T05:00:24;99236.97;;;10.82;81.26
66430;BME280;53242;51.694;10.006;2023-03-19T05:02:47;99237.38;;;10.86;80.99
66430;BME280;53242;51.694;10.006;2023-03-19T05:05:10;99245.28;;;10.93;80.98
66430;BME280;53242;51.694;10.006;2023-03-19T05:07:34;99253.22;;;10.93;82.37
66430;BME280;53242;51.694;10.006;2023-03-19T05:09:59;99244.28;;;11.00;80.69
66430;BME280;53242;51.694;10.006;2023-03-19T05:12:21;99261.34;;;10.98;80.93
66430;BME280;53242;51.694;10.006;2023-03-19T05:14:46;99257.47;;;10.80;81.00
66430;BME280;53242;51.694;10.006;2023-03-19T05:17:14;99254.00;;;10.86;81.25
66430;BME280;53242;51.694;10.006;2023-03-19T05:19:56;99260.94;;;10.88;81.43
66430;BME280;53242;51.694;10.006;2023-03-19T05:22:19;99267.03;;;10.95;81.06
66430;BME280;53242;51.694;10.006;2023-03-19T05:24:41;99274.13;;;10.81;81.26
66430;BME280;53242;51.694;10.006;2023-03-19T05:27:04;99273.28;;;10.67;82.57
66430;BME280;53242;51.694;10.006;2023-03-19T05:29:34;99283.44;;;10.70;83.04
66430;BME280;53242;51.694;10.006;2023-03-19T05:32:13;99273.91;;;10.69;82.67
66430;BME280;53242;51.694;10.006;2023-03-19T05:34:37;99276.16;;;10.79;82.45
66430;BME280;53242;51.694;10.006;2023-03-19T05:36:59;99280.00;;;10.83;82.20
66430;BME280;53242;51.694;10.006;2023-03-19T05:39:22;99277.56;;;10.81;82.33
66430;BME280;53242;51.694;10.006;2023-03-19T05:41:45;99277.78;;;10.80;82.21
66430;BME280;53242;51.694;10.006;2023-03-19T05:44:12;99275.13;;;10.73;82.02
66430;BME280;53242;51.694;10.006;2023-03-19T05:46:58;99269.66;;;10.75;82.13
66430;BME280;53242;51.694;10.006;2023-03-19T05:49:24;99268.84;;;10.81;81.89
66430;BME280;53242;51.694;10.006;2023-03-19T05:51:47;99266.00;;;10.76;81.84
66430;BME280;53242;51.694;10.006;2023-03-19T05:54:09;99267.63;;;10.97;81.38
66430;BME280;53242;51.694;10.006;2023-03-19T05:56:55;99262.34;;;11.03;80.71
66430;BME280;53242;51.694;10.006;2023-03-19T05:59:26;99264.38;;;11.08;80.50
66430;BME280;53242;51.694;10.006;2023-03-19T06:02:02;99263.38;;;11.02;81.11
66430;BME280;53242;51.694;10.006;2023-03-19T06:04:24;99276.16;;;11.06;80.85
66430;BME280;53242;51.694;10.006;2023-03-19T06:06:47;99272.53;;;11.00;81.70
66430;BME280;53242;51.694;10.006;2023-03-19T06:09:10;99279.00;;;10.91;82.54
66430;BME280;53242;51.694;10.006;2023-03-19T06:11:36;99281.44;;;10.85;82.50
66430;BME280;53242;51.694;10.006;2023-03-19T06:14:23;99285.91;;;10.98;81.73
66430;BME280;53242;51.694;10.006;2023-03-19T06:17:02;99299.09;;;10.72;82.53
66430;BME280;53242;51.694;10.006;2023-03-19T06:19:24;99304.09;;;10.46;84.83
66430;BME280;53242;51.694;10.006;2023-03-19T06:21:47;99315.50;;;10.60;85.10
66430;BME280;53242;51.694;10.006;2023-03-19T06:24:11;99320.16;;;10.58;85.04
66430;BME280;53242;51.694;10.006;2023-03-19T06:26:34;99324.06;;;10.69;84.82
66430;BME280;53242;51.694;10.006;2023-03-19T06:29:01;99318.16;;;10.60;84.89
66430;BME280;53242;51.694;10.006;2023-03-19T06:31:23;99317.78;;;10.77;84.14
66430;BME280;53242;51.694;10.006;2023-03-19T06:33:48;99323.06;;;10.77;84.17
66430;BME280;53242;51.694;10.006;2023-03-19T06:36:11;99327.56;;;10.90;83.62
66430;BME280;53242;51.694;10.006;2023-03-19T06:38:34;99321.81;;;10.66;84.31
66430;BME280;53242;51.694;10.006;2023-03-19T06:40:58;99333.22;;;10.86;83.40
66430;BME280;53242;51.694;10.006;2023-03-19T06:43:20;99336.88;;;10.85;83.40
66430;BME280;53242;51.694;10.006;2023-03-19T06:45:43;99336.06;;;10.98;83.07
66430;BME280;53242;51.694;10.006;2023-03-19T06:48:05;99349.50;;;11.03;82.77
66430;BME280;53242;51.694;10.006;2023-03-19T06:50:27;99353.69;;;10.71;83.90
66430;BME280;53242;51.694;10.006;2023-03-19T06:52:50;99360.84;;;10.91;84.09
66430;BME280;53242;51.694;10.006;2023-03-19T06:55:13;99366.13;;;10.84;84.76
66430;BME280;53242;51.694;10.006;2023-03-19T06:57:35;99373.00;;;10.78;84.71
66430;BME280;53242;51.694;10.006;2023-03-19T06:59:58;99378.44;;;10.70;84.97
66430;BME280;53242;51.694;10.006;2023-03-19T07:02:20;99377.44;;;10.64;85.40
66430;BME280;53242;51.694;10.006;2023-03-19T07:04:43;99377.03;;;10.67;85.39
66430;BME280;53242;51.694;10.006;2023-03-19T07:07:05;99364.47;;;10.76;84.96
66430;BME280;53242;51.694;10.006;2023-03-19T07:09:28;99368.38;;;10.87;83.83
66430;BME280;53242;51.694;10.006;2023-03-19T07:11:50;99362.66;;;10.83;84.06
66430;BME280;53242;51.694;10.006;2023-03-19T07:14:12;99374.88;;;10.91;83.86
66430;BME280;53242;51.694;10.006;2023-03-19T07:16:35;99371.59;;;10.89;84.25
66430;BME280;53242;51.694;10.006;2023-03-19T07:18:57;99379.16;;;10.99;84.06
66430;BME280;53242;51.694;10.006;2023-03-19T07:21:20;99364.94;;;11.00;84.06
66430;BME280;53242;51.694;10.006;2023-03-19T07:23:42;99360.84;;;10.91;84.48
66430;BME280;53242;51.694;10.006;2023-03-19T07:26:05;99352.13;;;10.97;84.08
66430;BME280;53242;51.694;10.006;2023-03-19T07:28:27;99347.25;;;11.00;83.84
66430;BME280;53242;51.694;10.006;2023-03-19T07:30:51;99349.69;;;11.09;84.03
66430;BME280;53242;51.694;10.006;2023-03-19T07:33:14;99353.75;;;11.05;84.22
66430;BME280;53242;51.694;10.006;2023-03-19T07:35:37;99349.84;;;10.80;85.90
66430;BME280;53242;51.694;10.006;2023-03-19T07:37:59;99348.63;;;10.76;86.59
66430;BME280;53242;51.694;10.006;2023-03-19T07:40:22;99353.13;;;10.96;86.18
66430;BME280;53242;51.694;10.006;2023-03-19T07:42:44;99350.72;;;11.01;85.86
66430;BME280;53242;51.694;10.006;2023-03-19T07:45:07;99350.47;;;10.82;86.06
66430;BME280;53242;51.694;10.006;2023-03-19T07:47:29;99352.72;;;10.85;86.62
66430;BME280;53242;51.694;10.006;2023-03-19T07:49:52;99355.78;;;10.96;86.38
66430;BME280;53242;51.694;10.006;2023-03-19T07:52:14;99361.06;;;10.89;86.33
66430;BME280;53242;51.694;10.006;2023-03-19T07:54:36;99364.31;;;10.91;86.35
66430;BME280;53242;51.694;10.006;2023-03-19T07:56:59;99362.53;;;11.05;85.25
66430;BME280;53242;51.694;10.006;2023-03-19T07:59:21;99367.97;;;10.97;85.67
66430;BME280;53242;51.694;10.006;2023-03-19T08:01:44;99369.44;;;11.13;84.80
66430;BME280;53242;51.694;10.006;2023-03-19T08:04:06;99366.81;;;11.19;84.58
66430;BME280;53242;51.694;10.006;2023-03-19T08:06:29;99373.50;;;11.29;84.11
66430;BME280;53242;51.694;10.006;2023-03-19T08:08:51;99380.00;;;11.33;83.93
66430;BME280;53242;51.694;10.006;2023-03-19T08:11:14;99381.25;;;11.44;83.75
66430;BME280;53242;51.694;10.006;2023-03-19T08:13:36;99387.16;;;11.66;83.21
66430;BME280;53242;51.694;10.006;2023-03-19T08:15:59;99388.97;;;11.79;83.17
66430;BME280;53242;51.694;10.006;2023-03-19T08:18:21;99383.25;;;11.82;82.60
66430;BME280;53242;51.694;10.006;2023-03-19T08:20:47;99386.94;;;11.74;83.26
66430;BME280;53242;51.694;10.006;2023-03-19T08:23:09;99379.22;;;11.66;83.37
66430;BME280;53242;51.694;10.006;2023-03-19T08:25:33;99377.16;;;11.81;81.75
66430;BME280;53242;51.694;10.006;2023-03-19T08:27:55;99381.84;;;11.73;81.63
66430;BME280;53242;51.694;10.006;2023-03-19T08:30:18;99376.34;;;11.88;81.90
66430;BME280;53242;51.694;10.006;2023-03-19T08:32:40;99370.47;;;11.79;81.46
66430;BME280;53242;51.694;10.006;2023-03-19T08:35:03;99387.91;;;12.07;80.26
66430;BME280;53242;51.694;10.006;2023-03-19T08:37:27;99385.66;;;12.24;80.99
66430;BME280;53242;51.694;10.006;2023-03-19T08:39:50;99376.28;;;12.28;81.19
66430;BME280;53242;51.694;10.006;2023-03-19T08:42:13;99382.16;;;12.30;81.32
66430;BME280;53242;51.694;10.006;2023-03-19T08:44:38;99379.59;;;12.62;81.04
66430;BME280;53242;51.694;10.006;2023-03-19T08:47:00;99377.94;;;12.74;79.97
66430;BME280;53242;51.694;10.006;2023-03-19T08:49:23;99377.28;;;12.79;79.73
66430;BME280;53242;51.694;10.006;2023-03-19T08:51:45;99380.31;;;13.21;78.78
66430;BME280;53242;51.694;10.006;2023-03-19T08:54:08;99383.09;;;13.33;78.16
66430;BME280;53242;51.694;10.006;2023-03-19T08:56:32;99380.09;;;13.23;77.85
66430;BME280;53242;51.694;10.006;2023-03-19T08:58:55;99379.66;;;13.26;77.95
66430;BME280;53242;51.694;10.006;2023-03-19T09:01:18;99387.47;;;13.53;77.31
66430;BME280;53242;51.694;10.006;2023-03-19T09:03:41;99381.03;;;13.86;76.78
66430;BME280;53242;51.694;10.006;2023-03-19T09:06:06;99379.59;;;13.90;76.84
66430;BME280;53242;51.694;10.006;2023-03-19T09:08:30;99380.78;;;13.94;75.91
66430;BME280;53242;51.694;10.006;2023-03-19T09:10:52;99381.06;;;14.04;75.61
66430;BME280;53242;51.694;10.006;2023-03-19T09:13:15;99376.38;;;14.25;75.00
66430;BME280;53242;51.694;10.006;2023-03-19T09:15:37;99374.16;;;14.40;74.83
66430;BME280;53242;51.694;10.006;2023-03-19T09:17:59;99373.31;;;14.40;74.45
66430;BME280;53242;51.694;10.006;2023-03-19T09:20:22;99383.22;;;14.33;74.44
66430;BME280;53242;51.694;10.006;2023-03-19T09:22:44;99371.03;;;14.43;74.07
66430;BME280;53242;51.694;10.006;2023-03-19T09:25:07;99374.22;;;14.52;73.79
66430;BME280;53242;51.694;10.006;2023-03-19T09:27:30;99371.47;;;14.59;73.42
66430;BME280;53242;51.694;10.006;2023-03-19T09:29:53;99379.44;;;14.59;73.89
66430;BME280;53242;51.694;10.006;2023-03-19T09:32:15;99374.88;;;14.29;74.65
66430;BME280;53242;51.694;10.006;2023-03-19T09:34:37;99376.22;;;14.20;75.26
66430;BME280;53242;51.694;10.006;2023-03-19T09:37:00;99371.63;;;13.90;75.74
66430;BME280;53242;51.694;10.006;2023-03-19T09:39:22;99369.00;;;14.08;75.72
66430;BME280;53242;51.694;10.006;2023-03-19T09:44:37;99377.59;;;13.85;76.74
66430;BME280;53242;51.694;10.006;2023-03-19T09:47:16;99378.13;;;13.94;76.99
66430;BME280;53242;51.694;10.006;2023-03-19T09:49:46;99377.66;;;13.97;76.54
66430;BME280;53242;51.694;10.006;2023-03-19T09:52:29;99363.97;;;14.00;76.29
66430;BME280;53242;51.694;10.006;2023-03-19T09:54:55;99371.19;;;13.93;74.12
66430;BME280;53242;51.694;10.006;2023-03-19T09:57:19;99372.09;;;14.05;74.86
66430;BME280;53242;51.694;10.006;2023-03-19T09:59:41;99378.13;;;14.12;74.43
66430;BME280;53242;51.694;10.006;2023-03-19T10:02:25;99380.56;;;14.14;73.98
66430;BME280;53242;51.694;10.006;2023-03-19T10:10:50;99388.81;;;14.24;73.68
66430;BME280;53242;51.694;10.006;2023-03-19T10:16:20;99392.28;;;14.43;73.64
66430;BME280;53242;51.694;10.006;2023-03-19T10:18:45;99384.09;;;14.45;72.29
66430;BME280;53242;51.694;10.006;2023-03-19T10:21:20;99392.13;;;14.57;71.67
66430;BME280;53242;51.694;10.006;2023-03-19T10:23:54;99392.59;;;14.72;71.70
66430;BME280;53242;51.694;10.006;2023-03-19T10:26:20;99387.84;;;14.74;71.51
66430;BME280;53242;51.694;10.006;2023-03-19T10:28:45;99389.03;;;14.60;71.52
66430;BME280;53242;51.694;10.006;2023-03-19T10:36:44;99383.31;;;14.93;70.55
66430;BME280;53242;51.694;10.006;2023-03-19T10:39:06;99385.69;;;14.83;70.52
66430;BME280;53242;51.694;10.006;2023-03-19T10:41:37;99379.16;;;14.98;70.23
66430;BME280;53242;51.694;10.006;2023-03-19T10:44:08;99373.25;;;14.65;69.73
66430;BME280;53242;51.694;10.006;2023-03-19T10:46:39;99381.03;;;15.09;68.02
66430;BME280;53242;51.694;10.006;2023-03-19T10:49:01;99378.09;;;15.29;68.73
66430;BME280;53242;51.694;10.006;2023-03-19T10:51:25;99384.69;;;15.26;68.67
66430;BME280;53242;51.694;10.006;2023-03-19T10:53:48;99386.38;;;15.21;68.66
66430;BME280;53242;51.694;10.006;2023-03-19T10:56:22;99389.44;;;15.36;67.70
66430;BME280;53242;51.694;10.006;2023-03-19T10:59:01;99383.88;;;15.38;67.64
66430;BME280;53242;51.694;10.006;2023-03-19T11:01:34;99385.38;;;15.45;66.82
66430;BME280;53242;51.694;10.006;2023-03-19T11:03:58;99392.69;;;15.50;67.77
66430;BME280;53242;51.694;10.006;2023-03-19T11:08:55;99391.66;;;15.75;66.19
66430;BME280;53242;51.694;10.006;2023-03-19T11:11:42;99385.44;;;15.93;63.44
66430;BME280;53242;51.694;10.006;2023-03-19T11:14:08;99391.84;;;16.04;64.18
66430;BME280;53242;51.694;10.006;2023-03-19T11:16:31;99392.19;;;16.07;63.91
66430;BME280;53242;51.694;10.006;2023-03-19T11:18:54;99393.44;;;15.93;63.28
66430;BME280;53242;51.694;10.006;2023-03-19T11:21:42;99389.75;;;16.18;61.81
66430;BME280;53242;51.694;10.006;2023-03-19T11:24:16;99394.00;;;16.19;62.51
66430;BME280;53242;51.694;10.006;2023-03-19T11:26:38;99391.44;;;16.24;62.51
66430;BME280;53242;51.694;10.006;2023-03-19T11:29:03;99385.84;;;16.49;62.03
66430;BME280;53242;51.694;10.006;2023-03-19T11:31:33;99385.63;;;16.39;59.16
66430;BME280;53242;51.694;10.006;2023-03-19T11:37:15;99385.19;;;16.71;58.89
66430;BME280;53242;51.694;10.006;2023-03-19T11:39:56;99384.66;;;16.86;59.01
66430;BME280;53242;51.694;10.006;2023-03-19T11:45:43;99378.25;;;16.70;56.17
66430;BME280;53242;51.694;10.006;2023-03-19T11:51:09;99373.34;;;16.79;57.86
66430;BME280;53242;51.694;10.006;2023-03-19T11:53:59;99372.78;;;17.05;58.08
66430;BME280;53242;51.694;10.006;2023-03-19T11:56:30;99377.00;;;16.89;57.80
66430;BME280;53242;51.694;10.006;2023-03-19T11:59:28;99371.81;;;16.83;56.05
66430;BME280;53242;51.694;10.006;2023-03-19T12:04:54;99368.44;;;17.16;55.34
66430;BME280;53242;51.694;10.006;2023-03-19T12:10:19;99363.34;;;17.66;55.82
66430;BME280;53242;51.694;10.006;2023-03-19T12:15:38;99362.53;;;17.65;54.72
66430;BME280;53242;51.694;10.006;2023-03-19T12:20:44;99358.19;;;17.25;54.49
66430;BME280;53242;51.694;10.006;2023-03-19T12:23:31;99355.75;;;17.23;55.26
66430;BME280;53242;51.694;10.006;2023-03-19T12:26:22;99354.47;;;17.26;54.91
66430;BME280;53242;51.694;10.006;2023-03-19T12:28:55;99344.00;;;16.90;55.30
66430;BME280;53242;51.694;10.006;2023-03-19T12:34:51;99352.69;;;16.57;56.27
66430;BME280;53242;51.694;10.006;2023-03-19T12:37:21;99351.78;;;16.51;56.33
66430;BME280;53242;51.694;10.006;2023-03-19T12:42:37;99350.47;;;16.25;58.14
66430;BME280;53242;51.694;10.006;2023-03-19T12:45:01;99346.41;;;16.22;58.09
66430;BME280;53242;51.694;10.006;2023-03-19T12:47:31;99365.19;;;16.16;58.42
66430;BME280;53242;51.694;10.006;2023-03-19T12:50:13;99364.25;;;15.74;58.04
66430;BME280;53242;51.694;10.006;2023-03-19T12:52:40;99358.94;;;15.62;58.92
66430;BME280;53242;51.694;10.006;2023-03-19T12:55:21;99361.84;;;15.73;57.21
66430;BME280;53242;51.694;10.006;2023-03-19T12:57:57;99361.19;;;15.89;56.63
66430;BME280;53242;51.694;10.006;2023-03-19T13:00:29;99364.59;;;15.66;57.57
66430;BME280;53242;51.694;10.006;2023-03-19T13:05:38;99358.03;;;15.81;57.46
66430;BME280;53242;51.694;10.006;2023-03-19T13:08:09;99353.50;;;15.93;57.25
66430;BME280;53242;51.694;10.006;2023-03-19T13:10:35;99361.28;;;16.06;57.78
66430;BME280;53242;51.694;10.006;2023-03-19T13:12:59;99362.53;;;16.16;57.30
66430;BME280;53242;51.694;10.006;2023-03-19T13:15:36;99349.19;;;16.27;56.51
66430;BME280;53242;51.694;10.006;2023-03-19T13:18:13;99347.75;;;16.49;57.15
66430;BME280;53242;51.694;10.006;2023-03-19T13:23:21;99346.50;;;16.68;56.60
66430;BME280;53242;51.694;10.006;2023-03-19T13:25:45;99345.69;;;16.68;55.90
66430;BME280;53242;51.694;10.006;2023-03-19T13:28:19;99348.31;;;16.80;56.04
66430;BME280;53242;51.694;10.006;2023-03-19T13:31:07;99344.00;;;16.90;55.09
66430;BME280;53242;51.694;10.006;2023-03-19T13:33:38;99345.31;;;17.05;55.89
66430;BME280;53242;51.694;10.006;2023-03-19T13:36:06;99335.31;;;17.12;55.00
66430;BME280;53242;51.694;10.006;2023-03-19T13:38:45;99334.31;;;17.01;54.94
66430;BME280;53242;51.694;10.006;2023-03-19T13:43:53;99338.22;;;16.82;56.44